Terminal Aerodrome Forecast
Issued by NWS Portland, ME

Home | Current Version | Previous Version | Text Only | Print | Product List | Glossary On
Versions: 1 2 3 4 5 6 7 8 9 10 11 12 13 14 15 16 17
000
FTUS41 KGYX 262320
TAFCON
TAF
KCON 262320Z 2700/2724 33006KT 4SM BR BKN010 OVC022
      TEMPO 2700/2702 1/2SM FG OVC004
     FM270200 VRB03KT 4SM -RA BR OVC015
     FM271200 00000KT 5SM BR BKN030
     FM271500 00000KT P6SM OVC035
     FM271800 VRB03KT P6SM OVC050=

USA.gov is the U.S. government's official web portal to all federal, state and local government web resources and services.